Time;durP1;ratioP1;P1;durP2;ratioP2;P2;SDS_P1;SDS_P2;PMS_P1;PMS_P2;Temp;Humidity;BMP_temperature;BMP_pressure;BME280_temperature;BME280_humidity;BME280_pressure;Samples;Min_cycle;Max_cycle;Signal;HPM_P1;HPM_P2
2022/06/28 00:00:37;;;;;;;8.82;4.85;;;23.00;99.90;;;;;;5097695;28;20039;-50
2022/06/28 00:03:04;;;;;;;6.40;4.88;;;22.90;99.90;;;;;;5114618;28;20514;-51
2022/06/28 00:05:29;;;;;;;6.50;4.60;;;22.90;99.90;;;;;;5053681;28;20040;-50
2022/06/28 00:07:55;;;;;;;5.53;4.40;;;22.80;99.90;;;;;;5116536;28;20454;-50
2022/06/28 00:10:22;;;;;;;7.63;5.00;;;;;;;;;;5116664;28;20395;-50
2022/06/28 00:12:48;;;;;;;5.88;4.45;;;;;;;;;;5114899;28;20448;-50
2022/06/28 00:17:59;;;;;;;8.68;4.75;;;22.30;99.90;;;;;;5089969;28;20126;-51
2022/06/28 00:20:26;;;;;;;6.65;4.05;;;;;;;;;;5116200;28;20067;-51
2022/06/28 00:22:51;;;;;;;6.00;3.80;;;22.00;99.90;;;;;;5116212;28;20459;-50
2022/06/28 00:25:17;;;;;;;8.88;4.75;;;22.00;99.90;;;;;;5115837;28;20052;-51
2022/06/28 00:27:43;;;;;;;6.40;4.32;;;22.10;99.90;;;;;;5114885;28;20127;-50
2022/06/28 00:30:10;;;;;;;4.72;4.30;;;22.10;99.90;;;;;;5115870;28;20031;-50
2022/06/28 00:32:36;;;;;;;6.68;3.85;;;22.10;99.90;;;;;;5059320;28;20039;-51
2022/06/28 00:35:03;;;;;;;6.25;4.10;;;;;;;;;;5093243;28;20403;-50
2022/06/28 00:37:29;;;;;;;8.75;4.10;;;;;;;;;;5093238;28;20039;-50
2022/06/28 00:39:55;;;;;;;10.25;4.43;;;;;;;;;;5093780;28;20040;-50
2022/06/28 00:42:22;;;;;;;5.38;4.40;;;;;;;;;;5093261;28;20514;-49
2022/06/28 00:44:48;;;;;;;7.57;5.32;;;;;;;;;;5093215;28;20043;-50
2022/06/28 00:47:14;;;;;;;6.50;4.55;;;;;;;;;;5093585;28;20036;-51
2022/06/28 00:49:42;;;;;;;8.40;5.05;;;;;;;;;;5092935;28;20032;-50
2022/06/28 00:52:09;;;;;;;6.68;4.60;;;22.40;99.90;;;;;;5093162;28;20047;-51
2022/06/28 00:54:35;;;;;;;7.07;5.32;;;22.30;99.90;;;;;;5093367;28;20131;-51
2022/06/28 00:57:01;;;;;;;7.97;4.85;;;22.20;99.90;;;;;;5092665;28;20430;-51
2022/06/28 00:59:28;;;;;;;11.57;5.72;;;22.10;99.90;;;;;;5092859;28;20088;-50
2022/06/28 01:01:53;;;;;;;7.13;4.90;;;22.10;99.90;;;;;;5092867;28;20507;-49
2022/06/28 01:04:19;;;;;;;9.30;5.20;;;22.10;99.90;;;;;;5111129;28;20039;-50
2022/06/28 01:06:45;;;;;;;8.80;5.38;;;22.00;99.90;;;;;;5113660;28;20040;-50
2022/06/28 01:09:11;;;;;;;9.27;5.00;;;21.80;99.90;;;;;;5115393;28;20095;-51
2022/06/28 01:11:37;;;;;;;5.70;4.93;;;21.90;99.90;;;;;;5096184;28;20232;-51
2022/06/28 01:14:08;;;;;;;6.35;4.60;;;22.00;99.90;;;;;;5115040;28;20066;-51
2022/06/28 01:16:36;;;;;;;4.97;4.43;;;22.00;99.90;;;;;;5113708;28;20023;-50
2022/06/28 01:19:05;;;;;;;6.80;4.40;;;22.10;99.90;;;;;;5114932;28;20076;-50
2022/06/28 01:21:34;;;;;;;7.22;4.70;;;22.30;99.90;;;;;;5115359;28;20111;-50
2022/06/28 01:24:01;;;;;;;5.47;4.60;;;22.30;99.90;;;;;;5077941;28;20046;-51
2022/06/28 01:26:29;;;;;;;6.47;4.38;;;22.20;99.90;;;;;;5115325;28;20027;-50
2022/06/28 01:28:54;;;;;;;7.53;4.72;;;22.20;99.90;;;;;;5114776;28;20100;-50
2022/06/28 01:31:22;;;;;;;6.32;4.03;;;22.20;99.90;;;;;;5114684;28;20027;-50
2022/06/28 01:33:52;;;;;;;6.80;5.30;;;22.20;99.90;;;;;;5110043;28;20506;-50
2022/06/28 01:36:18;;;;;;;7.65;5.40;;;22.10;99.90;;;;;;5114197;28;20051;-51
2022/06/28 01:38:44;;;;;;;7.40;4.95;;;22.00;99.90;;;;;;5115486;28;20028;-50
2022/06/28 01:41:32;;;;;;;7.45;4.82;;;21.90;99.90;;;;;;5129899;27;20042;-50
2022/06/28 01:44:00;;;;;;;5.45;4.80;;;21.60;99.90;;;;;;5114842;28;20032;-51
2022/06/28 01:46:26;;;;;;;7.90;5.22;;;21.50;99.90;;;;;;5114554;28;20066;-50
2022/06/28 01:48:54;;;;;;;6.15;4.72;;;21.40;99.90;;;;;;5110788;28;20496;-51
2022/06/28 01:51:21;;;;;;;7.45;5.25;;;21.60;99.90;;;;;;5114434;28;20085;-52
2022/06/28 01:53:47;;;;;;;7.50;5.97;;;21.70;99.90;;;;;;5113161;28;20114;-51
2022/06/28 01:56:12;;;;;;;6.82;5.30;;;21.60;99.90;;;;;;5114614;27;20453;-52
2022/06/28 01:58:39;;;;;;;6.10;5.50;;;21.70;99.90;;;;;;5114724;28;20553;-50
2022/06/28 02:01:05;;;;;;;6.60;5.32;;;21.70;99.90;;;;;;5078461;28;20104;-50
2022/06/28 02:03:31;;;;;;;6.20;5.57;;;21.60;99.90;;;;;;5114130;28;20454;-50
2022/06/28 02:05:57;;;;;;;8.77;5.97;;;21.60;99.90;;;;;;5112633;28;20032;-49
2022/06/28 02:08:23;;;;;;;11.05;5.97;;;21.50;99.90;;;;;;5114331;28;20023;-49
2022/06/28 02:10:48;;;;;;;9.35;6.07;;;21.50;99.90;;;;;;5113943;28;20099;-50
2022/06/28 02:13:14;;;;;;;11.00;6.55;;;21.60;99.90;;;;;;5114062;28;20019;-51
2022/06/28 02:15:40;;;;;;;8.82;6.00;;;21.70;99.90;;;;;;5114391;28;20031;-51
2022/06/28 02:18:06;;;;;;;7.65;6.05;;;21.90;99.90;;;;;;5113952;28;20027;-50
2022/06/28 02:20:32;;;;;;;8.30;6.30;;;21.90;99.90;;;;;;5114333;28;20020;-51
2022/06/28 02:22:58;;;;;;;6.95;5.88;;;21.80;99.90;;;;;;5113729;28;20039;-51
2022/06/28 02:25:24;;;;;;;10.40;5.95;;;21.80;99.90;;;;;;5113504;28;20047;-50
2022/06/28 02:27:51;;;;;;;7.68;5.97;;;21.80;99.90;;;;;;5112431;28;20028;-51
2022/06/28 02:30:19;;;;;;;8.73;5.78;;;21.90;99.90;;;;;;5113986;28;20031;-52
2022/06/28 02:32:44;;;;;;;5.80;5.20;;;21.90;99.90;;;;;;5113876;28;20051;-50
2022/06/28 02:40:38;;;;;;;8.02;5.90;;;21.80;99.90;;;;;;5113842;28;20143;-51
2022/06/28 02:43:04;;;;;;;6.63;5.40;;;21.90;99.90;;;;;;5113416;28;20035;-51
2022/06/28 02:45:32;;;;;;;10.05;6.05;;;21.80;99.90;;;;;;5111346;28;20127;-49
2022/06/28 02:47:58;;;;;;;5.90;5.18;;;21.80;99.90;;;;;;5073994;28;20078;-50
2022/06/28 02:50:24;;;;;;;6.90;5.72;;;22.00;99.90;;;;;;5080012;28;20135;-50
2022/06/28 02:52:50;;;;;;;5.40;4.60;;;22.00;99.90;;;;;;5081657;28;20046;-51
2022/06/28 02:55:17;;;;;;;6.90;5.47;;;22.00;99.90;;;;;;5080355;28;20036;-51
2022/06/28 02:57:44;;;;;;;6.25;5.35;;;22.00;99.90;;;;;;5080211;28;20123;-51
2022/06/28 03:00:15;;;;;;;6.75;5.65;;;21.90;99.90;;;;;;5080234;28;20043;-49
2022/06/28 03:02:42;;;;;;;8.48;5.60;;;21.90;99.90;;;;;;5080240;28;20037;-50
2022/06/28 03:05:10;;;;;;;6.95;6.22;;;;;;;;;;5080851;28;20024;-50
2022/06/28 03:07:37;;;;;;;8.45;6.00;;;21.60;99.90;;;;;;5079992;28;20068;-49
2022/06/28 03:10:03;;;;;;;9.20;5.82;;;21.50;99.90;;;;;;5091300;28;20115;-50
2022/06/28 03:12:29;;;;;;;8.70;6.20;;;21.40;99.90;;;;;;5058394;28;20033;-49
2022/06/28 03:14:55;;;;;;;7.13;6.00;;;21.30;99.90;;;;;;5079579;28;20040;-50
2022/06/28 03:17:21;;;;;;;7.38;6.68;;;21.20;99.90;;;;;;5076359;28;20040;-49
2022/06/28 03:19:47;;;;;;;9.43;5.90;;;21.10;99.90;;;;;;5106215;28;20078;-50
2022/06/28 03:22:12;;;;;;;7.53;6.72;;;21.30;99.90;;;;;;5113648;28;20119;-49
2022/06/28 03:24:38;;;;;;;8.13;6.78;;;21.20;99.90;;;;;;5112651;28;20572;-50
2022/06/28 03:27:04;;;;;;;6.55;5.95;;;21.10;99.90;;;;;;5113145;28;20024;-49
2022/06/28 03:29:30;;;;;;;11.15;7.15;;;21.00;99.90;;;;;;5112802;28;20078;-50
2022/06/28 03:31:56;;;;;;;10.50;6.78;;;21.10;99.90;;;;;;5117330;27;20061;-50
2022/06/28 03:34:21;;;;;;;8.30;6.57;;;21.30;99.90;;;;;;5116624;28;20391;-50
2022/06/28 03:36:47;;;;;;;8.27;6.47;;;21.30;99.90;;;;;;5116922;28;20036;-49
2022/06/28 03:39:13;;;;;;;8.18;6.05;;;21.30;99.90;;;;;;5117097;28;20409;-51
2022/06/28 03:41:40;;;;;;;10.25;5.82;;;21.60;99.90;;;;;;5098665;28;20028;-50
2022/06/28 03:44:05;;;;;;;7.63;6.65;;;21.60;99.90;;;;;;5117037;28;20027;-51
2022/06/28 03:46:31;;;;;;;7.97;5.80;;;21.70;99.90;;;;;;5097922;28;20039;-50
2022/06/28 03:48:57;;;;;;;7.55;5.45;;;21.80;99.90;;;;;;5116766;28;20024;-51
2022/06/28 03:51:23;;;;;;;6.97;5.93;;;21.50;99.90;;;;;;5114957;28;20043;-50
2022/06/28 03:53:49;;;;;;;9.07;5.75;;;22.10;99.90;;;;;;5116982;28;20119;-50
2022/06/28 03:56:14;;;;;;;9.00;5.60;;;21.90;99.90;;;;;;5098556;28;20048;-51
2022/06/28 03:58:40;;;;;;;5.88;5.28;;;21.90;99.90;;;;;;5093874;28;20039;-51
2022/06/28 04:01:06;;;;;;;9.32;5.45;;;21.60;99.90;;;;;;5094009;28;20048;-51
2022/06/28 04:03:34;;;;;;;8.00;5.80;;;21.60;99.90;;;;;;5066763;28;20037;-51
2022/06/28 04:06:00;;;;;;;7.75;5.10;;;21.90;99.90;;;;;;5063485;28;20381;-50
2022/06/28 04:08:26;;;;;;;7.78;4.97;;;22.20;99.90;;;;;;5064497;28;20045;-52
2022/06/28 04:13:41;;;;;;;11.43;5.80;;;22.50;99.90;;;;;;5059526;28;20094;-50
2022/06/28 04:16:07;;;;;;;5.95;5.35;;;22.60;99.90;;;;;;5063511;28;20124;-51
2022/06/28 04:18:33;;;;;;;7.03;6.07;;;22.60;99.90;;;;;;5030053;28;20116;-51
2022/06/28 04:20:59;;;;;;;7.28;6.57;;;;;;;;;;5052934;28;20060;-50
2022/06/28 04:23:24;;;;;;;9.50;6.68;;;22.80;99.90;;;;;;5064969;28;20049;-49
2022/06/28 04:25:50;;;;;;;8.25;6.70;;;22.70;99.90;;;;;;5062740;28;20098;-50
2022/06/28 04:28:17;;;;;;;6.93;5.80;;;;;;;;;;5056752;28;20084;-50
2022/06/28 04:30:42;;;;;;;6.97;5.82;;;22.90;99.90;;;;;;5087444;28;20471;-50
2022/06/28 04:33:08;;;;;;;10.30;6.05;;;22.80;99.90;;;;;;5077652;28;20026;-50
2022/06/28 04:35:34;;;;;;;7.05;6.35;;;22.80;99.90;;;;;;5108274;28;20047;-49
2022/06/28 04:38:03;;;;;;;7.05;5.35;;;22.80;99.90;;;;;;5115275;28;20027;-50
2022/06/28 04:40:29;;;;;;;7.22;5.95;;;22.90;99.90;;;;;;5116125;28;20034;-50
2022/06/28 04:42:55;;;;;;;7.82;6.78;;;23.00;99.90;;;;;;5115603;28;20027;-50
2022/06/28 04:45:21;;;;;;;8.73;5.80;;;23.10;99.90;;;;;;5115822;28;20411;-49
2022/06/28 04:47:47;;;;;;;6.13;5.60;;;23.30;99.90;;;;;;5115996;28;20123;-51
2022/06/28 04:50:13;;;;;;;8.30;6.53;;;23.30;99.90;;;;;;5113953;28;20054;-51
2022/06/28 04:52:39;;;;;;;7.82;5.30;;;23.30;99.90;;;;;;5113680;28;20067;-50
2022/06/28 04:55:06;;;;;;;7.88;5.90;;;23.40;99.90;;;;;;5113862;28;20040;-47
2022/06/28 04:57:31;;;;;;;7.15;5.80;;;23.50;99.90;;;;;;5113776;28;20143;-52
2022/06/28 04:59:57;;;;;;;9.25;6.30;;;23.70;99.90;;;;;;5114910;28;20119;-51
2022/06/28 05:02:23;;;;;;;8.27;5.70;;;23.80;99.90;;;;;;5114532;28;20028;-52
2022/06/28 05:04:49;;;;;;;7.20;5.72;;;23.90;99.90;;;;;;5078151;28;20043;-52
2022/06/28 05:07:15;;;;;;;8.82;5.55;;;24.10;99.90;;;;;;5114650;28;20428;-50
2022/06/28 05:09:41;;;;;;;8.80;5.90;;;24.30;99.90;;;;;;5115002;28;20023;-50
2022/06/28 05:12:07;;;;;;;5.40;4.90;;;24.40;99.90;;;;;;5114003;28;20139;-50
2022/06/28 05:14:33;;;;;;;6.85;5.50;;;24.40;99.90;;;;;;5079043;28;20082;-52
2022/06/28 05:16:59;;;;;;;6.57;5.88;;;24.40;99.90;;;;;;5115011;28;20073;-50
2022/06/28 05:19:25;;;;;;;7.32;5.45;;;24.50;99.90;;;;;;5115388;28;20036;-52
2022/06/28 05:21:51;;;;;;;6.88;4.95;;;24.40;99.90;;;;;;5115878;28;20023;-51
2022/06/28 05:24:17;;;;;;;104.53;32.38;;;24.50;99.90;;;;;;5095891;28;20402;-48
2022/06/28 05:26:43;;;;;;;31.88;14.73;;;24.80;99.90;;;;;;5114914;28;20024;-48
2022/06/28 05:29:09;;;;;;;9.90;5.40;;;25.00;99.90;;;;;;5114855;28;20433;-49
2022/06/28 05:31:35;;;;;;;7.43;5.07;;;25.10;99.90;;;;;;5113067;28;20032;-48
2022/06/28 05:34:02;;;;;;;9.65;5.00;;;25.30;99.90;;;;;;5112704;28;20059;-48
2022/06/28 05:36:28;;;;;;;6.07;5.03;;;25.40;99.90;;;;;;5114790;28;20022;-48
2022/06/28 05:38:53;;;;;;;6.53;4.60;;;25.60;99.90;;;;;;5095983;28;20044;-48
2022/06/28 05:41:19;;;;;;;5.93;4.80;;;25.80;99.90;;;;;;5111894;28;20382;-48
2022/06/28 05:43:45;;;;;;;31.25;12.88;;;25.80;99.90;;;;;;5113931;28;20566;-51
2022/06/28 05:46:11;;;;;;;10.63;6.28;;;;;;;;;;5113429;28;20027;-48
2022/06/28 05:48:37;;;;;;;8.93;5.03;;;25.90;99.90;;;;;;5110733;27;20042;-50
2022/06/28 05:51:03;;;;;;;9.10;5.20;;;26.00;99.90;;;;;;5128164;27;20039;-49
2022/06/28 05:53:29;;;;;;;6.70;4.85;;;26.00;99.90;;;;;;5112955;28;20435;-48
2022/06/28 05:55:55;;;;;;;10.07;4.80;;;26.10;99.90;;;;;;5114688;28;20035;-50
2022/06/28 05:58:21;;;;;;;6.53;5.18;;;;;;;;;;5083518;28;20123;-49
2022/06/28 06:00:49;;;;;;;7.63;4.95;;;;;;;;;;5114959;28;20028;-49
2022/06/28 06:03:15;;;;;;;7.20;5.38;;;;;;;;;;5114538;28;20396;-49
2022/06/28 06:05:41;;;;;;;7.38;5.10;;;26.70;99.90;;;;;;5114148;28;20031;-51
2022/06/28 06:08:07;;;;;;;5.72;5.00;;;26.80;99.90;;;;;;5113215;28;20040;-49
2022/06/28 06:10:33;;;;;;;6.85;4.88;;;26.70;99.90;;;;;;5114164;28;20050;-50
2022/06/28 06:12:59;;;;;;;8.85;4.32;;;26.70;99.90;;;;;;5114507;28;20470;-50
2022/06/28 06:15:25;;;;;;;6.50;4.82;;;27.00;99.90;;;;;;5112845;28;20128;-50
2022/06/28 06:17:50;;;;;;;8.85;4.78;;;27.10;99.90;;;;;;5095096;28;20617;-49
2022/06/28 06:20:16;;;;;;;7.75;5.15;;;27.20;99.90;;;;;;5113759;28;20104;-51
2022/06/28 06:22:42;;;;;;;7.68;3.95;;;27.30;99.90;;;;;;5114175;28;20030;-51
2022/06/28 06:25:08;;;;;;;4.78;4.28;;;27.50;99.90;;;;;;5114151;28;20386;-49
2022/06/28 06:27:34;;;;;;;5.47;4.40;;;;;;;;;;5084500;28;20063;-49
2022/06/28 06:30:00;;;;;;;8.80;4.30;;;27.50;99.90;;;;;;5114411;28;20106;-50
2022/06/28 06:32:27;;;;;;;9.88;4.80;;;27.70;99.90;;;;;;5077647;28;20127;-50
2022/06/28 06:34:52;;;;;;;5.15;4.65;;;27.70;99.90;;;;;;5111602;28;20051;-50
2022/06/28 06:37:18;;;;;;;5.63;4.85;;;27.80;99.90;;;;;;5113498;28;20088;-51
2022/06/28 06:39:44;;;;;;;4.63;3.85;;;28.10;99.90;;;;;;5111999;28;20031;-49
2022/06/28 06:42:09;;;;;;;6.45;4.05;;;28.10;99.90;;;;;;5095491;28;20059;-49
2022/06/28 06:44:35;;;;;;;7.72;4.70;;;28.00;99.90;;;;;;5060828;28;20075;-50
2022/06/28 06:47:01;;;;;;;9.07;4.45;;;28.10;99.90;;;;;;5113728;28;20467;-48
2022/06/28 06:49:27;;;;;;;5.63;4.97;;;;;;;;;;5111771;28;20048;-50
2022/06/28 06:51:53;;;;;;;7.63;4.22;;;28.40;99.90;;;;;;5095342;28;20035;-50
2022/06/28 06:54:19;;;;;;;6.35;4.03;;;28.50;99.90;;;;;;5060631;28;20100;-49
2022/06/28 06:56:46;;;;;;;4.93;4.22;;;28.50;99.90;;;;;;5111441;28;20122;-51
2022/06/28 06:59:14;;;;;;;7.10;4.13;;;28.60;99.90;;;;;;5094689;28;20035;-49
2022/06/28 07:01:40;;;;;;;9.20;4.10;;;28.60;99.90;;;;;;5113629;28;20036;-49
2022/06/28 07:04:08;;;;;;;4.90;4.40;;;;;;;;;;5113337;28;20383;-49
2022/06/28 07:06:34;;;;;;;6.65;4.30;;;;;;;;;;5113128;28;20023;-51
2022/06/28 07:09:00;;;;;;;7.00;4.07;;;29.10;99.90;;;;;;5113279;28;20050;-51
2022/06/28 07:11:26;;;;;;;6.07;4.65;;;29.20;99.90;;;;;;5114343;28;20119;-50
2022/06/28 07:13:52;;;;;;;5.30;4.50;;;29.40;99.90;;;;;;5112940;28;20115;-50
2022/06/28 07:16:18;;;;;;;6.70;4.15;;;29.40;99.90;;;;;;5111032;28;20031;-50
2022/06/28 07:18:44;;;;;;;8.20;4.45;;;29.50;99.90;;;;;;5112999;28;20027;-51
2022/06/28 07:21:11;;;;;;;6.95;4.50;;;29.60;99.90;;;;;;5125712;28;20043;-49
2022/06/28 07:23:37;;;;;;;6.60;4.18;;;29.70;99.90;;;;;;5112971;28;20127;-51
2022/06/28 07:26:05;;;;;;;5.95;4.22;;;;;;;;;;5083435;28;20047;-51
2022/06/28 07:28:31;;;;;;;7.38;3.80;;;29.90;99.90;;;;;;5112848;28;20480;-51
2022/06/28 07:30:57;;;;;;;5.18;3.70;;;;;;;;;;5077016;28;20127;-50
2022/06/28 07:33:23;;;;;;;6.75;4.20;;;30.30;99.90;;;;;;5128508;28;20043;-50
2022/06/28 07:35:48;;;;;;;4.22;3.83;;;30.30;99.90;;;;;;5113746;28;20122;-50
2022/06/28 07:38:14;;;;;;;4.72;3.83;;;30.40;99.90;;;;;;5112943;28;20048;-49
2022/06/28 07:40:40;;;;;;;10.95;3.60;;;30.50;99.90;;;;;;5128175;28;20050;-50
2022/06/28 07:43:06;;;;;;;4.97;3.80;;;30.60;99.90;;;;;;5128430;28;20126;-51
2022/06/28 07:45:36;;;;;;;4.70;3.63;;;;;;;;;;5128678;28;20040;-51
2022/06/28 07:48:03;;;;;;;5.55;3.63;;;;;;;;;;5112835;28;20555;-48
2022/06/28 07:53:14;;;;;;;7.45;3.40;;;;;;;;;;5114051;28;20072;-50
2022/06/28 07:55:40;;;;;;;8.15;4.22;;;;;;;;;;5110738;28;20063;-51
2022/06/28 07:58:06;;;;;;;6.97;3.90;;;31.30;99.90;;;;;;5103134;28;20035;-50
2022/06/28 08:00:32;;;;;;;5.65;3.83;;;31.30;99.90;;;;;;5112390;28;20097;-49
2022/06/28 08:02:58;;;;;;;3.85;3.42;;;;;;;;;;5106861;28;20425;-48
2022/06/28 08:05:24;;;;;;;7.95;4.65;;;;;;;;;;5107255;28;20028;-51
2022/06/28 08:07:50;;;;;;;7.72;4.00;;;;;;;;;;5106010;28;20556;-50
2022/06/28 08:10:16;;;;;;;2.92;2.55;;;;;;;;;;5106931;28;20020;-49
2022/06/28 08:12:43;;;;;;;4.90;3.80;;;;;;;;;;5107594;28;20030;-49
2022/06/28 08:15:09;;;;;;;5.15;3.45;;;31.40;99.90;;;;;;5109302;28;20402;-50
2022/06/28 08:17:35;;;;;;;6.15;3.80;;;31.40;99.90;;;;;;5077395;28;20999;-51
2022/06/28 08:20:01;;;;;;;4.85;3.53;;;31.50;99.90;;;;;;5110322;28;20035;-51
2022/06/28 08:22:27;;;;;;;5.22;3.90;;;31.70;99.90;;;;;;5113268;28;20015;-49
2022/06/28 08:24:53;;;;;;;6.65;3.67;;;31.90;99.90;;;;;;5110755;28;20100;-51
2022/06/28 08:27:19;;;;;;;4.75;3.80;;;;;;;;;;5111587;28;20031;-49
2022/06/28 08:29:46;;;;;;;4.35;3.30;;;32.20;99.90;;;;;;5112921;28;20232;-51
2022/06/28 08:32:12;;;;;;;4.63;3.17;;;32.00;99.90;;;;;;5116214;27;20067;-51
2022/06/28 08:34:39;;;;;;;5.80;3.53;;;32.20;99.30;;;;;;5115814;28;20465;-51
2022/06/28 08:37:05;;;;;;;5.85;3.65;;;32.50;99.90;;;;;;5115878;28;20543;-50
2022/06/28 08:39:32;;;;;;;7.38;3.92;;;32.60;99.90;;;;;;5115790;28;20471;-50
2022/06/28 08:42:03;;;;;;;5.72;3.90;;;32.60;99.00;;;;;;5116748;28;20023;-49
2022/06/28 08:44:33;;;;;;;4.60;3.70;;;32.70;99.50;;;;;;5114433;27;20024;-50
2022/06/28 08:47:00;;;;;;;5.40;3.28;;;32.80;99.10;;;;;;5111539;27;20024;-50
2022/06/28 08:49:41;;;;;;;6.57;3.17;;;32.80;98.20;;;;;;5107860;28;20055;-50
2022/06/28 08:52:09;;;;;;;4.00;3.00;;;32.60;98.20;;;;;;5107144;28;20028;-51
2022/06/28 08:54:35;;;;;;;6.20;3.88;;;32.70;97.60;;;;;;5112988;27;20039;-50
2022/06/28 08:57:05;;;;;;;3.70;3.10;;;32.70;97.20;;;;;;5115602;28;20083;-49
2022/06/28 08:59:31;;;;;;;4.80;3.55;;;33.00;97.10;;;;;;5114841;28;20081;-50
2022/06/28 09:01:56;;;;;;;3.78;3.08;;;33.10;97.30;;;;;;5115153;28;20031;-49
2022/06/28 09:04:22;;;;;;;4.25;3.28;;;33.10;96.20;;;;;;5115920;28;20035;-49
2022/06/28 09:06:48;;;;;;;5.65;3.55;;;33.10;95.80;;;;;;5116249;28;20036;-49
2022/06/28 09:09:14;;;;;;;5.72;3.03;;;33.20;95.90;;;;;;5079348;28;20479;-49
2022/06/28 09:11:43;;;;;;;4.30;3.33;;;33.30;95.70;;;;;;5115199;28;20508;-49
2022/06/28 09:14:27;;;;;;;3.58;3.17;;;33.40;96.30;;;;;;5115017;28;20044;-50
2022/06/28 09:16:55;;;;;;;6.72;3.40;;;33.40;96.10;;;;;;5116204;28;20028;-49
2022/06/28 09:19:40;;;;;;;4.13;3.30;;;33.50;95.80;;;;;;5115499;28;20070;-50
2022/06/28 09:22:06;;;;;;;3.80;2.88;;;33.20;95.30;;;;;;5112304;28;20042;-51
2022/06/28 09:24:34;;;;;;;4.22;3.20;;;32.80;95.60;;;;;;5115043;28;20053;-50
2022/06/28 09:27:04;;;;;;;4.45;3.30;;;33.20;96.10;;;;;;5114964;27;20039;-50
2022/06/28 09:29:30;;;;;;;7.35;3.80;;;;;;;;;;5114917;28;20043;-51
2022/06/28 09:31:56;;;;;;;12.07;3.88;;;;;;;;;;5115022;28;20035;-51
2022/06/28 09:34:22;;;;;;;5.05;3.85;;;34.00;95.40;;;;;;5113069;28;20047;-51
2022/06/28 09:36:56;;;;;;;6.57;3.80;;;34.00;95.30;;;;;;5115457;28;20024;-50
2022/06/28 09:39:28;;;;;;;8.23;3.85;;;33.90;94.70;;;;;;5114867;28;20059;-50
2022/06/28 09:41:56;;;;;;;7.32;4.78;;;34.20;95.00;;;;;;5113595;27;20023;-51
2022/06/28 09:44:28;;;;;;;5.60;4.05;;;34.60;96.20;;;;;;5114690;28;20138;-52
2022/06/28 09:46:57;;;;;;;9.23;7.25;;;34.30;95.10;;;;;;5114904;28;20510;-49
2022/06/28 09:49:32;;;;;;;34.60;23.67;;;34.20;94.40;;;;;;5110127;28;20043;-49
2022/06/28 09:52:00;;;;;;;22.50;14.43;;;34.30;94.40;;;;;;5111660;28;20034;-49
2022/06/28 09:54:27;;;;;;;17.35;12.90;;;34.40;94.50;;;;;;5114053;28;20043;-50
2022/06/28 09:56:56;;;;;;;11.13;7.05;;;34.80;94.50;;;;;;5113535;28;20031;-49
2022/06/28 09:59:27;;;;;;;22.38;15.02;;;35.10;94.10;;;;;;5114683;28;20032;-49
2022/06/28 10:01:55;;;;;;;9.60;4.93;;;34.90;93.30;;;;;;5111708;28;20047;-50
2022/06/28 10:04:23;;;;;;;16.98;7.80;;;34.70;94.00;;;;;;5109068;28;20360;-48
2022/06/28 10:06:49;;;;;;;11.05;5.88;;;34.80;94.10;;;;;;5092048;28;20505;-52
2022/06/28 10:09:18;;;;;;;7.57;4.15;;;35.00;94.00;;;;;;5112740;28;20024;-51
2022/06/28 10:17:39;;;;;;;4.80;3.35;;;35.30;92.90;;;;;;5104909;28;20124;-49
2022/06/28 10:20:07;;;;;;;4.28;3.88;;;35.20;93.10;;;;;;5086668;28;20127;-51
2022/06/28 10:22:32;;;;;;;10.38;3.65;;;35.00;93.60;;;;;;5056249;28;20047;-50
2022/06/28 10:25:01;;;;;;;5.05;3.33;;;35.50;93.50;;;;;;5085221;28;20048;-53
2022/06/28 10:27:28;;;;;;;4.40;3.42;;;35.10;93.00;;;;;;5086079;28;20509;-49
2022/06/28 10:30:08;;;;;;;4.70;3.75;;;35.20;92.80;;;;;;5084996;28;20028;-48
2022/06/28 10:32:45;;;;;;;7.18;4.40;;;35.50;93.20;;;;;;5081062;28;20058;-49
2022/06/28 10:35:31;;;;;;;6.70;3.70;;;35.90;92.60;;;;;;5045941;28;20428;-48
2022/06/28 10:38:08;;;;;;;3.95;3.47;;;35.00;92.20;;;;;;5088175;28;20044;-49
2022/06/28 10:40:47;;;;;;;6.68;2.70;;;35.30;92.30;;;;;;5090401;28;20384;-48
2022/06/28 10:43:14;;;;;;;2.78;2.33;;;35.20;91.10;;;;;;5089283;28;20032;-48
2022/06/28 10:46:07;;;;;;;3.13;2.83;;;35.20;91.00;;;;;;5090773;28;20093;-48
2022/06/28 10:49:02;;;;;;;3.53;2.92;;;35.40;91.80;;;;;;5091073;28;20032;-48
2022/06/28 10:51:28;;;;;;;3.85;2.97;;;35.90;91.60;;;;;;5089296;28;20127;-49
2022/06/28 10:53:57;;;;;;;5.55;3.00;;;35.70;90.60;;;;;;5041753;28;20038;-49
2022/06/28 10:56:27;;;;;;;8.10;3.40;;;35.80;90.60;;;;;;5089490;28;20064;-48
2022/06/28 10:58:57;;;;;;;5.77;2.80;;;36.20;91.10;;;;;;5091276;28;20402;-49
2022/06/28 11:01:44;;;;;;;4.35;2.88;;;36.70;91.00;;;;;;5126933;27;20048;-53
2022/06/28 11:04:18;;;;;;;5.60;2.60;;;37.00;90.20;;;;;;5109691;28;20391;-51
2022/06/28 11:06:46;;;;;;;4.88;2.75;;;35.90;88.60;;;;;;5110614;28;20371;-52
2022/06/28 11:09:17;;;;;;;3.95;2.78;;;36.20;90.00;;;;;;5108999;28;20108;-53
2022/06/28 11:12:06;;;;;;;4.30;2.92;;;36.50;88.00;;;;;;5110662;28;20042;-52
2022/06/28 11:14:45;;;;;;;4.85;2.90;;;36.80;88.90;;;;;;5112794;28;20040;-47
2022/06/28 11:17:36;;;;;;;3.65;2.60;;;36.80;87.00;;;;;;5112731;28;20039;-59
2022/06/28 11:20:05;;;;;;;6.70;3.08;;;36.70;86.50;;;;;;5110863;28;20114;-57
2022/06/28 11:22:45;;;;;;;4.20;2.50;;;36.90;87.30;;;;;;5112823;28;20068;-51
2022/06/28 11:25:19;;;;;;;3.72;2.38;;;36.70;86.40;;;;;;5108761;28;20101;-50
2022/06/28 11:27:58;;;;;;;6.72;3.13;;;36.40;86.60;;;;;;5105296;28;20031;-51
2022/06/28 11:30:27;;;;;;;5.43;2.60;;;36.90;86.30;;;;;;5105260;28;20485;-57
2022/06/28 11:32:55;;;;;;;4.35;2.78;;;36.60;85.60;;;;;;5107662;28;20032;-51
2022/06/28 11:35:23;;;;;;;3.83;2.40;;;36.70;87.00;;;;;;5068053;28;20433;-52
2022/06/28 11:38:02;;;;;;;3.88;2.45;;;37.20;85.40;;;;;;5109556;28;20047;-49
2022/06/28 11:40:29;;;;;;;3.53;2.33;;;37.10;85.50;;;;;;5109926;28;20027;-51
2022/06/28 11:43:08;;;;;;;5.00;2.10;;;37.10;83.20;;;;;;5108631;28;20058;-50
2022/06/28 11:45:46;;;;;;;5.68;2.75;;;37.50;82.50;;;;;;5102541;28;20040;-51
2022/06/28 11:48:14;;;;;;;6.90;2.53;;;37.70;83.70;;;;;;5110165;28;20028;-56
2022/06/28 11:50:50;;;;;;;5.13;2.65;;;36.70;82.60;;;;;;5111590;28;20031;-53
2022/06/28 11:53:18;;;;;;;5.15;2.13;;;37.40;83.70;;;;;;5112951;28;20038;-53
2022/06/28 11:55:47;;;;;;;3.80;2.17;;;37.60;82.40;;;;;;5112263;28;20086;-54
2022/06/28 11:58:16;;;;;;;5.10;2.40;;;;;;;;;;5113373;28;20035;-58
2022/06/28 12:01:01;;;;;;;2.88;2.22;;;;;;;;;;5130888;27;20505;-58
2022/06/28 12:03:27;;;;;;;5.65;2.15;;;38.40;81.80;;;;;;5112511;27;20076;-59
2022/06/28 12:05:57;;;;;;;4.40;2.13;;;37.70;80.70;;;;;;5115814;28;20491;-53
2022/06/28 12:08:49;;;;;;;65.88;32.60;;;37.70;81.10;;;;;;5107264;27;20143;-53
2022/06/28 12:11:56;;;;;;;4.22;2.38;;;37.40;80.70;;;;;;5114459;27;20031;-54
2022/06/28 12:14:29;;;;;;;3.67;2.10;;;37.70;79.10;;;;;;5033503;28;20060;-46
2022/06/28 12:16:55;;;;;;;4.55;2.20;;;37.80;79.40;;;;;;5026509;28;20049;-56
2022/06/28 12:19:31;;;;;;;3.53;2.17;;;;;;;;;;5030610;28;20033;-51
2022/06/28 12:22:07;;;;;;;5.10;2.20;;;38.40;83.20;;;;;;5031947;28;20021;-47
2022/06/28 12:24:46;;;;;;;4.57;2.10;;;38.30;82.50;;;;;;5031309;28;20049;-51
2022/06/28 12:27:18;;;;;;;3.92;2.00;;;38.40;78.10;;;;;;5008729;28;20034;-50
2022/06/28 12:29:45;;;;;;;3.60;1.85;;;37.60;80.20;;;;;;5033102;28;20135;-54
2022/06/28 12:32:11;;;;;;;4.65;2.50;;;37.60;76.00;;;;;;5032855;28;20037;-47
2022/06/28 12:34:39;;;;;;;5.18;2.10;;;38.10;92.00;;;;;;5033148;28;20095;-50
2022/06/28 12:37:06;;;;;;;3.88;1.90;;;;;;;;;;5033084;28;20046;-50
2022/06/28 12:39:31;;;;;;;4.10;2.00;;;38.40;91.50;;;;;;5044504;28;20083;-49
2022/06/28 12:41:57;;;;;;;3.30;2.08;;;38.40;75.90;;;;;;5053845;28;20449;-49
2022/06/28 12:44:23;;;;;;;2.83;2.05;;;38.80;78.50;;;;;;5052775;28;20496;-51
2022/06/28 12:46:51;;;;;;;6.22;2.13;;;39.20;76.50;;;;;;5052756;28;20519;-52
2022/06/28 12:49:21;;;;;;;3.22;1.70;;;39.60;75.80;;;;;;5070354;28;20036;-49
2022/06/28 12:51:47;;;;;;;5.13;2.15;;;39.20;72.90;;;;;;5131003;27;20067;-52
2022/06/28 12:54:14;;;;;;;2.10;1.70;;;38.90;74.60;;;;;;5115507;28;20379;-52
2022/06/28 12:56:40;;;;;;;3.05;1.98;;;39.20;74.10;;;;;;5116210;28;20040;-50
2022/06/28 12:59:06;;;;;;;2.65;1.85;;;38.10;73.30;;;;;;5115879;28;20075;-53
2022/06/28 13:01:32;;;;;;;4.20;2.00;;;;;;;;;;5115289;28;20085;-53
2022/06/28 13:03:58;;;;;;;3.92;1.80;;;37.80;73.40;;;;;;5115332;28;20034;-52
2022/06/28 13:06:24;;;;;;;4.18;2.03;;;;;;;;;;5115475;28;20031;-52
2022/06/28 13:08:50;;;;;;;3.35;1.90;;;37.50;73.10;;;;;;5115471;28;20106;-52
2022/06/28 13:11:16;;;;;;;3.90;2.10;;;37.60;73.70;;;;;;5114095;28;20494;-50
2022/06/28 13:13:42;;;;;;;3.20;1.60;;;38.20;75.20;;;;;;5115659;28;20031;-51
2022/06/28 13:16:08;;;;;;;4.65;2.22;;;38.50;74.60;;;;;;5115766;28;20035;-53
2022/06/28 13:18:34;;;;;;;6.00;1.98;;;39.30;75.10;;;;;;5073558;28;20040;-51
2022/06/28 13:21:00;;;;;;;5.03;2.10;;;38.30;73.30;;;;;;5131048;27;20102;-52